Time;durP1;ratioP1;P1;durP2;ratioP2;P2;SDS_P1;SDS_P2;PMS_P1;PMS_P2;Temp;Humidity;BMP_temperature;BMP_pressure;BME280_temperature;BME280_humidity;BME280_pressure;Samples;Min_cycle;Max_cycle;Signal;HPM_P1;HPM_P2
2024/03/15 00:01:39;;;;;;;28.40;21.30;;;;;;;10.41;58.95;101603.08;106807;1270;25327;-57
2024/03/15 00:04:10;;;;;;;28.80;21.60;;;;;;;10.38;59.00;101603.44;105999;1255;1003207;-57
2024/03/15 00:06:38;;;;;;;29.70;21.60;;;;;;;10.35;59.03;101600.00;106948;1270;22508;-57
2024/03/15 00:09:09;;;;;;;30.90;22.20;;;;;;;10.34;59.08;101601.91;106863;1257;25331;-57
2024/03/15 00:11:37;;;;;;;30.40;21.70;;;;;;;10.33;58.99;101595.33;106908;1269;22528;-57
2024/03/15 00:14:05;;;;;;;31.00;22.30;;;;;;;10.30;59.10;101596.21;106751;1261;22546;-57
2024/03/15 00:16:32;;;;;;;31.20;22.00;;;;;;;10.27;59.14;101590.70;106422;1273;22525;-59
2024/03/15 00:19:02;;;;;;;29.50;21.30;;;;;;;10.24;59.23;101592.27;106601;1263;22524;-56
2024/03/15 00:21:30;;;;;;;31.30;21.70;;;;;;;10.22;59.44;101590.90;106602;1254;22521;-56
2024/03/15 00:23:59;;;;;;;30.50;21.20;;;;;;;10.23;59.47;101587.77;106798;1261;22522;-57
2024/03/15 00:26:26;;;;;;;29.80;21.40;;;;;;;10.26;59.60;101589.66;106737;1256;22524;-57
2024/03/15 00:28:58;;;;;;;29.30;20.10;;;;;;;10.27;59.62;101585.48;106067;1260;1002996;-57
2024/03/15 00:31:27;;;;;;;29.10;22.40;;;;;;;10.30;59.52;101583.55;106089;1269;1002838;-58
2024/03/15 00:33:55;;;;;;;28.90;20.90;;;;;;;10.31;59.51;101578.69;106880;1257;24529;-56
2024/03/15 00:36:23;;;;;;;28.40;21.00;;;;;;;10.33;59.58;101578.67;106816;1258;22525;-56
2024/03/15 00:38:54;;;;;;;30.10;20.60;;;;;;;10.34;59.62;101577.28;107075;1256;22549;-56
2024/03/15 00:41:22;;;;;;;33.10;23.40;;;;;;;10.36;59.66;101578.83;106889;1270;22528;-57
2024/03/15 00:43:53;;;;;;;29.30;21.00;;;;;;;10.37;59.55;101577.26;106141;1267;1003039;-57
2024/03/15 00:46:24;;;;;;;28.40;21.10;;;;;;;10.36;59.56;101578.13;106290;1262;1015719;-57
2024/03/15 00:48:55;;;;;;;31.10;20.30;;;;;;;10.37;59.65;101577.61;106805;1257;22995;-57
2024/03/15 00:51:23;;;;;;;25.90;19.20;;;;;;;10.38;59.56;101577.25;106074;1253;1003087;-57
2024/03/15 00:53:51;;;;;;;24.20;18.40;;;;;;;10.42;59.55;101578.09;106986;1257;22532;-56
2024/03/15 00:56:19;;;;;;;28.90;19.70;;;;;;;10.43;59.41;101583.45;106768;1269;22519;-57
2024/03/15 00:58:47;;;;;;;24.40;17.80;;;;;;;10.43;59.57;101578.24;106734;1260;22526;-59
2024/03/15 01:01:15;;;;;;;23.30;18.70;;;;;;;10.43;59.41;101577.91;105798;1267;1002939;-56
2024/03/15 01:03:42;;;;;;;24.80;18.50;;;;;;;10.43;59.46;101579.80;106136;1259;1003527;-59
2024/03/15 01:06:13;;;;;;;26.40;18.50;;;;;;;10.43;59.41;101578.77;106771;1254;24179;-57
2024/03/15 01:08:41;;;;;;;25.00;17.40;;;;;;;10.43;59.45;101579.13;106780;1257;25902;-58
2024/03/15 01:11:09;;;;;;;21.20;17.20;;;;;;;10.44;59.54;101578.40;106749;1260;22612;-58
2024/03/15 01:13:37;;;;;;;22.00;16.20;;;;;;;10.46;59.52;101577.70;106115;1256;1003574;-58
2024/03/15 01:16:05;;;;;;;24.00;18.00;;;;;;;10.48;59.43;101579.23;106804;1270;22541;-58
2024/03/15 01:18:33;;;;;;;23.70;17.10;;;;;;;10.47;59.27;101581.33;106916;1256;25370;-58
2024/03/15 01:21:02;;;;;;;20.50;16.80;;;;;;;10.46;59.34;101582.22;106853;1268;22559;-58
2024/03/15 01:23:31;;;;;;;23.10;16.80;;;;;;;10.46;59.39;101581.87;106928;1257;26512;-58
2024/03/15 01:25:59;;;;;;;22.40;16.90;;;;;;;10.45;59.38;101583.77;106931;1257;25379;-58
2024/03/15 01:28:28;;;;;;;22.00;16.40;;;;;;;10.46;59.48;101582.22;106802;1259;24186;-59
2024/03/15 01:30:57;;;;;;;20.50;15.70;;;;;;;10.47;59.58;101583.41;106867;1259;22535;-58
2024/03/15 01:33:26;;;;;;;22.50;16.40;;;;;;;10.49;59.50;101583.57;106855;1257;22555;-59
2024/03/15 01:35:54;;;;;;;20.40;15.50;;;;;;;10.49;59.44;101584.44;106803;1255;22523;-58
2024/03/15 01:38:23;;;;;;;20.60;16.40;;;;;;;10.50;59.49;101585.11;106793;1254;22526;-58
2024/03/15 01:40:51;;;;;;;19.80;15.90;;;;;;;10.52;59.55;101585.63;106868;1255;24285;-58
2024/03/15 01:43:19;;;;;;;20.20;15.30;;;;;;;10.54;59.57;101587.54;106819;1257;22542;-59
2024/03/15 01:45:47;;;;;;;16.40;14.30;;;;;;;10.55;59.48;101589.61;106807;1273;22550;-59
2024/03/15 01:48:17;;;;;;;18.00;14.10;;;;;;;10.55;59.45;101590.81;106782;1269;22523;-56
2024/03/15 01:50:47;;;;;;;16.60;13.10;;;;;;;10.57;59.51;101589.40;106905;1254;25363;-56
2024/03/15 01:53:16;;;;;;;15.50;13.30;;;;;;;10.58;59.36;101588.54;106612;1263;22527;-56
2024/03/15 01:55:43;;;;;;;15.40;13.30;;;;;;;10.57;59.27;101587.67;105877;1261;1002880;-57
2024/03/15 01:58:11;;;;;;;15.90;13.20;;;;;;;10.58;59.41;101589.23;106625;1257;22529;-56
2024/03/15 02:00:41;;;;;;;19.30;15.40;;;;;;;10.58;59.27;101590.44;106652;1273;22529;-57
2024/03/15 02:03:09;;;;;;;18.70;15.00;;;;;;;10.57;59.29;101589.77;106490;1272;22556;-57
2024/03/15 02:05:37;;;;;;;17.90;14.50;;;;;;;10.56;59.36;101586.47;106747;1257;25402;-56
2024/03/15 02:08:07;;;;;;;18.10;14.70;;;;;;;10.56;59.41;101590.29;106014;1262;1003093;-56
2024/03/15 02:10:35;;;;;;;19.50;15.70;;;;;;;10.58;59.38;101588.52;106433;1260;22793;-58
2024/03/15 02:13:04;;;;;;;17.90;14.10;;;;;;;10.57;59.45;101589.59;106478;1257;22550;-57
2024/03/15 02:15:34;;;;;;;16.80;12.90;;;;;;;10.57;59.50;101587.84;106377;1256;22600;-57
2024/03/15 02:18:03;;;;;;;15.60;12.00;;;;;;;10.58;59.42;101586.27;106562;1260;22535;-57
2024/03/15 02:20:31;;;;;;;15.40;12.80;;;;;;;10.59;59.30;101587.48;106402;1260;22529;-57
2024/03/15 02:22:59;;;;;;;16.00;12.60;;;;;;;10.59;59.27;101588.18;106293;1260;22519;-57
2024/03/15 02:25:26;;;;;;;14.70;12.50;;;;;;;10.58;59.21;101590.27;106524;1255;25359;-57
2024/03/15 02:27:54;;;;;;;16.60;13.10;;;;;;;10.59;59.33;101587.14;106612;1256;22526;-57
2024/03/15 02:30:22;;;;;;;18.20;13.90;;;;;;;10.59;59.18;101588.36;106095;1257;1003671;-57
2024/03/15 02:32:50;;;;;;;17.40;13.70;;;;;;;10.58;59.26;101586.09;106885;1269;22519;-57
2024/03/15 02:35:17;;;;;;;21.20;15.30;;;;;;;10.58;59.27;101591.48;106875;1255;25387;-57
2024/03/15 02:37:58;;;;;;;18.70;14.60;;;;;;;10.57;59.26;101588.88;106868;1256;22544;-57
2024/03/15 02:40:25;;;;;;;17.50;15.00;;;;;;;10.54;59.24;101593.77;106786;1254;22520;-57
2024/03/15 02:42:53;;;;;;;18.40;15.30;;;;;;;10.49;59.25;101596.05;107079;1269;22526;-57
2024/03/15 02:45:21;;;;;;;20.50;15.80;;;;;;;10.49;59.43;101599.00;106849;1268;22523;-57
2024/03/15 02:47:50;;;;;;;19.90;15.10;;;;;;;10.50;59.53;101600.91;106798;1257;22553;-57
2024/03/15 02:50:20;;;;;;;17.20;14.20;;;;;;;10.52;59.54;101597.25;106548;1257;344563;-57
2024/03/15 02:52:48;;;;;;;20.00;13.90;;;;;;;10.51;59.60;101594.14;106958;1269;22520;-57
2024/03/15 02:55:16;;;;;;;18.90;15.00;;;;;;;10.53;59.61;101596.40;106850;1254;22539;-57
2024/03/15 02:57:45;;;;;;;18.20;14.70;;;;;;;10.53;59.49;101597.08;106786;1257;22530;-57
2024/03/15 03:00:13;;;;;;;19.30;15.50;;;;;;;10.53;59.54;101597.95;106775;1269;22512;-57
2024/03/15 03:02:42;;;;;;;20.00;15.60;;;;;;;10.52;59.49;101600.73;106811;1257;22518;-57
2024/03/15 03:05:12;;;;;;;19.30;15.30;;;;;;;10.52;59.58;101602.46;106926;1256;22534;-58
2024/03/15 03:07:40;;;;;;;17.80;14.80;;;;;;;10.52;59.69;101602.98;106777;1273;22523;-57
2024/03/15 03:10:07;;;;;;;17.20;14.50;;;;;;;10.53;59.72;101601.77;106765;1258;25737;-57
2024/03/15 03:12:36;;;;;;;17.60;15.00;;;;;;;10.55;59.87;101608.52;106774;1255;22549;-57
2024/03/15 03:15:04;;;;;;;18.60;15.30;;;;;;;10.56;59.67;101606.42;106953;1253;22538;-57
2024/03/15 03:17:32;;;;;;;18.00;14.90;;;;;;;10.57;59.73;101605.54;106871;1256;22527;-57
2024/03/15 03:20:00;;;;;;;15.50;13.00;;;;;;;10.60;59.86;101603.61;106817;1268;22523;-57
2024/03/15 03:22:28;;;;;;;17.40;13.90;;;;;;;10.63;59.66;101603.75;106797;1258;22520;-57
2024/03/15 03:24:55;;;;;;;16.60;14.30;;;;;;;10.65;59.65;101602.02;106817;1257;22534;-56
2024/03/15 03:27:23;;;;;;;18.70;14.00;;;;;;;10.66;59.57;101606.15;106880;1257;22556;-57
2024/03/15 03:29:51;;;;;;;17.80;14.00;;;;;;;10.66;59.54;101602.86;106868;1253;22523;-57
2024/03/15 03:32:19;;;;;;;17.00;14.50;;;;;;;10.66;59.67;101606.67;106816;1255;22990;-58
2024/03/15 03:34:47;;;;;;;19.20;14.60;;;;;;;10.67;59.54;101605.10;106835;1256;22515;-57
2024/03/15 03:37:15;;;;;;;16.00;14.00;;;;;;;10.70;59.64;101606.98;106847;1254;22524;-57
2024/03/15 03:39:43;;;;;;;16.60;14.20;;;;;;;10.71;59.52;101607.85;106783;1260;22529;-58
2024/03/15 03:42:11;;;;;;;18.70;14.20;;;;;;;10.70;59.63;101606.64;106998;1254;22620;-57
2024/03/15 03:44:41;;;;;;;15.30;13.10;;;;;;;10.72;59.71;101605.06;106788;1269;22539;-57
2024/03/15 03:47:09;;;;;;;17.60;13.40;;;;;;;10.75;59.64;101605.21;106801;1260;22641;-57
2024/03/15 03:49:36;;;;;;;16.60;13.50;;;;;;;10.78;59.67;101605.01;106854;1258;22551;-58
2024/03/15 03:52:05;;;;;;;18.60;14.30;;;;;;;10.82;59.72;101599.94;106794;1260;22514;-57
2024/03/15 03:54:33;;;;;;;18.80;14.90;;;;;;;10.83;59.66;101600.80;106848;1257;22540;-58
2024/03/15 03:57:01;;;;;;;17.30;14.10;;;;;;;10.83;59.66;101602.70;106829;1268;25291;-57
2024/03/15 03:59:29;;;;;;;18.20;15.10;;;;;;;10.82;59.69;101599.59;106856;1256;24283;-57
2024/03/15 04:01:56;;;;;;;20.50;16.10;;;;;;;10.86;59.74;101600.95;106799;1268;22560;-57
2024/03/15 04:04:24;;;;;;;21.90;16.10;;;;;;;10.89;59.69;101605.09;106811;1254;24261;-57
2024/03/15 04:06:52;;;;;;;20.90;16.00;;;;;;;10.87;59.53;101606.14;106105;1256;1003573;-58
2024/03/15 04:09:21;;;;;;;18.90;15.80;;;;;;;10.84;59.65;101603.57;106751;1253;25353;-58
2024/03/15 04:11:49;;;;;;;20.50;16.40;;;;;;;10.83;59.77;101606.00;106634;1258;22521;-57
2024/03/15 04:14:16;;;;;;;19.60;15.90;;;;;;;10.82;59.87;101610.70;106646;1257;22526;-57
2024/03/15 04:16:44;;;;;;;20.60;16.10;;;;;;;10.81;59.88;101615.05;106696;1254;22523;-57
2024/03/15 04:19:13;;;;;;;20.30;15.10;;;;;;;10.80;59.90;101617.31;106625;1257;22540;-57
2024/03/15 04:21:42;;;;;;;18.70;14.70;;;;;;;10.79;60.00;101616.63;106248;1257;25353;-58
2024/03/15 04:24:11;;;;;;;19.60;15.70;;;;;;;10.79;60.19;101617.67;106645;1255;22529;-58
2024/03/15 04:26:39;;;;;;;18.70;15.00;;;;;;;10.79;60.14;101618.72;105921;1255;1002856;-58
2024/03/15 04:29:07;;;;;;;17.50;13.50;;;;;;;10.79;60.29;101620.09;106589;1257;22553;-57
2024/03/15 04:31:34;;;;;;;18.30;14.70;;;;;;;10.81;60.43;101621.82;106667;1258;22625;-58
2024/03/15 04:34:03;;;;;;;18.00;14.80;;;;;;;10.83;60.38;101618.67;106357;1275;22536;-57
2024/03/15 04:36:31;;;;;;;18.30;15.10;;;;;;;10.84;60.40;101622.48;106609;1256;22547;-57
2024/03/15 04:38:59;;;;;;;19.00;14.30;;;;;;;10.87;60.45;101622.45;106543;1258;24373;-58
2024/03/15 04:41:27;;;;;;;16.80;13.30;;;;;;;10.87;60.47;101622.80;106656;1268;22520;-58
2024/03/15 04:43:56;;;;;;;17.10;12.10;;;;;;;10.89;60.60;101621.22;106701;1255;22531;-58
2024/03/15 04:46:23;;;;;;;14.90;12.90;;;;;;;10.92;60.51;101623.45;106652;1257;22532;-58
2024/03/15 04:48:51;;;;;;;16.70;13.40;;;;;;;10.91;60.44;101624.33;106729;1258;22526;-58
2024/03/15 04:51:20;;;;;;;15.60;13.10;;;;;;;10.90;60.49;101626.58;106606;1269;22537;-59
2024/03/15 04:53:48;;;;;;;15.10;12.40;;;;;;;10.90;60.58;101620.86;106425;1261;22563;-58
2024/03/15 04:56:17;;;;;;;14.60;12.70;;;;;;;10.90;60.56;101625.20;106473;1259;22519;-58
2024/03/15 04:58:45;;;;;;;15.70;13.40;;;;;;;10.88;60.65;101623.84;106648;1252;22718;-58
2024/03/15 05:01:13;;;;;;;16.70;13.40;;;;;;;10.87;60.69;101629.23;106839;1257;22520;-59
2024/03/15 05:03:42;;;;;;;16.00;13.00;;;;;;;10.85;60.77;101628.03;106907;1255;22530;-59
2024/03/15 05:06:12;;;;;;;14.90;12.60;;;;;;;10.86;60.87;101627.15;106830;1258;22606;-59
2024/03/15 05:08:49;;;;;;;17.30;12.90;;;;;;;10.89;61.04;101630.94;106797;1267;22523;-60
2024/03/15 05:11:30;;;;;;;15.10;12.60;;;;;;;10.90;61.07;101630.93;106071;1257;1003301;-59
2024/03/15 05:13:58;;;;;;;13.50;11.80;;;;;;;10.89;61.06;101633.19;106791;1273;22520;-60
2024/03/15 05:16:26;;;;;;;13.50;11.80;;;;;;;10.91;61.25;101631.77;106892;1257;25376;-59
2024/03/15 05:18:56;;;;;;;13.40;11.10;;;;;;;10.95;61.27;101627.42;106816;1258;22518;-60
2024/03/15 05:21:24;;;;;;;12.70;10.20;;;;;;;10.99;61.47;101632.58;106883;1256;22539;-59
2024/03/15 05:23:52;;;;;;;13.30;9.90;;;;;;;11.05;61.59;101632.02;106779;1268;22547;-59
2024/03/15 05:26:20;;;;;;;11.90;9.70;;;;;;;11.11;61.60;101638.72;106794;1256;25457;-59
2024/03/15 05:28:49;;;;;;;10.00;8.00;;;;;;;11.16;61.60;101632.77;106839;1254;22523;-60
2024/03/15 05:31:23;;;;;;;9.60;8.50;;;;;;;11.21;61.65;101635.84;106808;1254;25250;-59
2024/03/15 05:33:51;;;;;;;9.40;7.80;;;;;;;11.27;61.60;101639.41;106862;1255;25631;-59
2024/03/15 05:36:19;;;;;;;9.00;8.00;;;;;;;11.32;61.70;101640.21;106809;1259;22519;-59
2024/03/15 05:38:47;;;;;;;9.90;8.10;;;;;;;11.39;61.64;101645.55;106848;1260;22526;-59
2024/03/15 05:41:15;;;;;;;8.10;6.90;;;;;;;11.42;61.46;101647.60;106852;1257;22523;-59
2024/03/15 05:43:44;;;;;;;8.00;7.20;;;;;;;11.45;61.36;101647.05;106898;1257;22530;-59
2024/03/15 05:46:11;;;;;;;7.30;6.50;;;;;;;11.48;61.37;101647.89;106060;1257;1003056;-59
2024/03/15 05:48:39;;;;;;;8.60;7.50;;;;;;;11.49;61.27;101650.99;106915;1256;22527;-59
2024/03/15 05:51:07;;;;;;;8.00;6.90;;;;;;;11.51;61.24;101652.37;106816;1256;24235;-59
2024/03/15 05:53:35;;;;;;;8.70;7.30;;;;;;;11.52;61.24;101652.19;106974;1268;22519;-59
2024/03/15 05:56:03;;;;;;;8.60;7.10;;;;;;;11.53;61.14;101655.13;106884;1257;22557;-59
2024/03/15 05:58:31;;;;;;;8.20;7.00;;;;;;;11.54;61.11;101655.98;106892;1255;22527;-59
2024/03/15 06:00:59;;;;;;;7.30;6.60;;;;;;;11.54;61.14;101659.11;106747;1257;23147;-59
2024/03/15 06:03:27;;;;;;;7.70;6.90;;;;;;;11.56;61.25;101662.55;106785;1260;25236;-59
2024/03/15 06:05:55;;;;;;;8.10;6.90;;;;;;;11.59;61.33;101658.70;106866;1268;22515;-58
2024/03/15 06:08:23;;;;;;;9.20;6.70;;;;;;;11.59;61.43;101659.23;106814;1256;22637;-57
2024/03/15 06:10:50;;;;;;;7.80;6.00;;;;;;;11.63;61.44;101659.86;106967;1256;22527;-58
2024/03/15 06:13:18;;;;;;;9.20;6.40;;;;;;;11.67;61.52;101657.41;106821;1258;22614;-58
2024/03/15 06:15:48;;;;;;;8.70;5.90;;;;;;;11.71;61.47;101663.45;107001;1256;25610;-58
2024/03/15 06:18:16;;;;;;;6.30;5.60;;;;;;;11.75;61.51;101659.56;106847;1255;22546;-57
2024/03/15 06:26:44;;;;;;;7.10;5.60;;;;;;;11.88;61.45;101659.94;103760;1299;545801;-57
2024/03/15 06:29:12;;;;;;;7.30;4.70;;;;;;;11.89;61.49;101662.89;106144;1266;24400;-57
2024/03/15 06:31:39;;;;;;;6.40;5.10;;;;;;;11.91;61.49;101662.50;106396;1263;22539;-57
2024/03/15 06:34:08;;;;;;;6.60;5.10;;;;;;;11.94;61.39;101663.88;106288;1278;25281;-57
2024/03/15 06:36:44;;;;;;;8.00;5.60;;;;;;;11.95;61.25;101662.29;106323;1279;25345;-57
2024/03/15 06:42:08;;;;;;;10.00;5.70;;;;;;;11.96;61.39;101663.14;106328;1282;22536;-58
2024/03/15 06:44:45;;;;;;;6.30;5.20;;;;;;;11.97;61.39;101662.26;106294;1279;23036;-59
2024/03/15 06:47:17;;;;;;;7.20;5.80;;;;;;;11.97;61.38;101666.08;106297;1276;22531;-59
2024/03/15 06:49:47;;;;;;;6.30;5.40;;;;;;;11.98;61.37;101665.72;106504;1275;22758;-59
2024/03/15 06:55:02;;;;;;;8.00;5.70;;;;;;;11.99;61.47;101665.36;106416;1276;24255;-58
2024/03/15 06:57:31;;;;;;;7.50;5.30;;;;;;;12.00;61.35;101669.34;106419;1276;22571;-58
2024/03/15 07:00:00;;;;;;;10.40;6.00;;;;;;;12.02;61.49;101667.58;106422;1276;24540;-60
2024/03/15 07:02:29;;;;;;;9.80;6.80;;;;;;;12.04;61.43;101666.52;106282;1276;22621;-58
2024/03/15 07:04:58;;;;;;;10.20;6.30;;;;;;;12.05;61.41;101669.10;106455;1270;24135;-58
2024/03/15 07:07:26;;;;;;;7.80;5.70;;;;;;;12.08;61.35;101672.36;106537;1272;22994;-57
2024/03/15 07:09:54;;;;;;;7.70;5.40;;;;;;;12.10;61.33;101673.74;106449;1260;22538;-57
2024/03/15 07:12:22;;;;;;;9.10;6.90;;;;;;;12.12;61.31;101674.93;106676;1270;24209;-57
2024/03/15 07:14:50;;;;;;;7.90;6.10;;;;;;;12.13;61.28;101678.56;106686;1270;22520;-57
2024/03/15 07:17:24;;;;;;;7.90;5.70;;;;;;;12.14;61.22;101675.75;105993;1276;1015262;-57
2024/03/15 07:19:54;;;;;;;6.30;5.40;;;;;;;12.15;61.28;101676.09;106742;1272;22531;-59
2024/03/15 07:22:24;;;;;;;7.20;5.20;;;;;;;12.18;61.29;101676.58;106828;1273;25366;-59
2024/03/15 07:24:55;;;;;;;6.70;4.90;;;;;;;12.19;61.12;101675.70;105950;1275;1003062;-57
2024/03/15 07:27:23;;;;;;;6.70;5.10;;;;;;;12.18;60.91;101675.35;106799;1272;22539;-57
2024/03/15 07:29:51;;;;;;;5.80;5.00;;;;;;;12.17;60.96;101676.59;106819;1272;22530;-57
2024/03/15 07:32:18;;;;;;;6.40;5.40;;;;;;;12.18;60.95;101679.70;106812;1272;23912;-57
2024/03/15 07:34:47;;;;;;;6.10;4.80;;;;;;;12.18;61.01;101679.19;106441;1275;24292;-58
2024/03/15 07:37:16;;;;;;;6.20;4.70;;;;;;;12.18;60.81;101682.67;106564;1270;22537;-58
2024/03/15 07:39:44;;;;;;;8.30;4.60;;;;;;;12.17;60.90;101684.24;106536;1273;25255;-58
2024/03/15 07:42:12;;;;;;;7.50;4.60;;;;;;;12.16;60.78;101683.55;106371;1276;22752;-58
2024/03/15 07:44:40;;;;;;;6.40;4.30;;;;;;;12.15;60.74;101683.58;106213;1270;22538;-58
2024/03/15 07:47:09;;;;;;;8.20;4.30;;;;;;;12.14;60.64;101687.75;106469;1264;25290;-59
2024/03/15 07:49:38;;;;;;;5.30;3.80;;;;;;;12.13;60.75;101686.91;106509;1271;25350;-59
2024/03/15 07:52:05;;;;;;;5.20;4.40;;;;;;;12.12;60.72;101689.53;106386;1275;22687;-58
2024/03/15 07:54:33;;;;;;;5.50;4.60;;;;;;;12.11;60.76;101690.59;106238;1270;22541;-58
2024/03/15 07:57:01;;;;;;;6.10;4.80;;;;;;;12.10;60.80;101688.85;106579;1276;24235;-58
2024/03/15 07:59:29;;;;;;;6.50;4.90;;;;;;;12.10;60.77;101687.13;106720;1273;24219;-57
2024/03/15 08:01:58;;;;;;;5.80;4.90;;;;;;;12.09;60.81;101689.23;106787;1270;22544;-58
2024/03/15 08:04:27;;;;;;;5.10;4.60;;;;;;;12.10;60.83;101688.17;106761;1278;24272;-58
2024/03/15 08:06:55;;;;;;;5.30;4.50;;;;;;;12.10;60.80;101686.61;106545;1275;22540;-57
2024/03/15 08:09:23;;;;;;;5.90;4.80;;;;;;;12.09;60.84;101693.58;106810;1273;25347;-57
2024/03/15 08:11:52;;;;;;;6.10;4.80;;;;;;;12.10;60.83;101690.08;106785;1272;24201;-57
2024/03/15 08:14:21;;;;;;;4.40;4.00;;;;;;;12.10;60.81;101689.20;106489;1276;22534;-56
2024/03/15 08:16:49;;;;;;;5.80;4.70;;;;;;;12.08;60.89;101692.02;106632;1273;25395;-57
2024/03/15 08:19:16;;;;;;;5.50;4.80;;;;;;;11.90;61.33;101689.30;106670;1270;22587;-57
2024/03/15 08:21:46;;;;;;;6.00;4.90;;;;;;;11.86;61.57;101691.27;106535;1275;22523;-57
2024/03/15 08:24:13;;;;;;;5.10;4.60;;;;;;;11.90;61.39;101690.35;106802;1273;25338;-57
2024/03/15 08:26:41;;;;;;;6.60;4.50;;;;;;;11.99;61.13;101690.75;106008;1270;1003732;-57
2024/03/15 08:29:10;;;;;;;7.10;4.30;;;;;;;12.12;60.78;101693.02;106686;1270;23876;-57
2024/03/15 08:31:38;;;;;;;5.20;4.70;;;;;;;12.15;60.67;101690.20;106697;1273;25360;-61
2024/03/15 08:34:07;;;;;;;5.10;4.50;;;;;;;12.16;60.65;101693.98;106526;1264;24353;-58
2024/03/15 08:36:36;;;;;;;4.90;4.40;;;;;;;12.18;60.76;101689.28;106535;1270;24067;-58
2024/03/15 08:39:10;;;;;;;4.40;3.90;;;;;;;12.17;60.70;101695.03;105735;1270;1003253;-58
2024/03/15 08:41:42;;;;;;;4.60;4.20;;;;;;;11.99;61.22;101690.92;106396;1272;25378;-58
2024/03/15 08:44:10;;;;;;;5.10;4.60;;;;;;;11.94;61.25;101693.59;106585;1270;25338;-58
2024/03/15 08:46:39;;;;;;;4.70;4.10;;;;;;;12.02;61.00;101695.76;106767;1272;22764;-58
2024/03/15 08:49:11;;;;;;;5.10;4.50;;;;;;;12.17;60.70;101696.77;106722;1272;22646;-58
2024/03/15 08:51:39;;;;;;;5.60;4.40;;;;;;;12.21;60.68;101697.23;106598;1275;25337;-58
2024/03/15 08:54:09;;;;;;;5.10;4.30;;;;;;;12.23;60.61;101696.86;106834;1272;25228;-58
2024/03/15 08:56:38;;;;;;;6.00;4.70;;;;;;;12.24;60.53;101699.80;106781;1272;22523;-58
2024/03/15 08:59:05;;;;;;;4.50;4.10;;;;;;;12.24;60.56;101702.59;106687;1272;25350;-58
2024/03/15 09:01:35;;;;;;;4.90;4.30;;;;;;;12.27;60.49;101699.59;106716;1270;25268;-59
2024/03/15 09:04:07;;;;;;;5.30;4.60;;;;;;;12.27;60.61;101700.98;106009;1275;1003065;-58
2024/03/15 09:06:36;;;;;;;4.60;4.20;;;;;;;12.27;60.63;101700.13;106639;1276;22646;-58
2024/03/15 09:09:12;;;;;;;4.60;4.10;;;;;;;12.29;60.60;101700.44;106541;1270;25375;-58
2024/03/15 09:11:44;;;;;;;4.20;3.80;;;;;;;12.31;60.76;101698.32;106706;1270;22662;-58
2024/03/15 09:14:17;;;;;;;4.20;3.50;;;;;;;12.35;60.73;101700.02;106511;1275;25375;-57
2024/03/15 09:16:50;;;;;;;4.00;3.60;;;;;;;12.37;60.51;101700.67;106574;1272;25350;-57
2024/03/15 09:19:20;;;;;;;4.50;4.10;;;;;;;12.35;60.43;101704.00;106782;1272;25360;-57
2024/03/15 09:21:49;;;;;;;4.40;4.00;;;;;;;12.35;60.38;101698.96;106674;1270;23881;-57
2024/03/15 09:24:18;;;;;;;3.90;3.50;;;;;;;12.38;60.44;101699.80;106668;1275;25347;-58
2024/03/15 09:26:46;;;;;;;4.50;4.00;;;;;;;12.40;60.33;101703.59;106683;1270;22632;-57
2024/03/15 09:29:15;;;;;;;4.10;3.70;;;;;;;12.40;60.43;101704.82;106808;1270;24299;-58
2024/03/15 09:31:45;;;;;;;4.90;4.00;;;;;;;12.42;60.49;101706.34;106730;1274;24200;-58
2024/03/15 09:34:35;;;;;;;4.80;4.20;;;;;;;12.45;60.50;101701.79;106586;1278;22522;-58
2024/03/15 09:37:06;;;;;;;4.80;4.30;;;;;;;12.47;60.52;101701.75;106820;1271;25287;-58
2024/03/15 09:39:34;;;;;;;5.60;5.00;;;;;;;12.50;60.57;101700.99;106078;1270;1003839;-58
2024/03/15 09:42:02;;;;;;;6.10;5.40;;;;;;;12.55;60.57;101700.77;106701;1270;24235;-58
2024/03/15 09:44:31;;;;;;;5.80;5.00;;;;;;;12.57;60.38;101702.45;106694;1270;24343;-57
2024/03/15 09:47:02;;;;;;;6.70;5.90;;;;;;;12.58;60.32;101707.66;106657;1273;22530;-57
2024/03/15 09:49:30;;;;;;;8.00;6.10;;;;;;;12.61;60.42;101707.79;105993;1273;1003081;-57
2024/03/15 09:51:58;;;;;;;7.30;5.70;;;;;;;12.63;60.28;101705.14;106805;1271;24380;-57
2024/03/15 09:54:27;;;;;;;6.40;5.50;;;;;;;12.64;60.23;101707.23;106773;1264;25444;-57
2024/03/15 09:56:57;;;;;;;8.10;5.70;;;;;;;12.66;60.28;101708.77;106353;1269;22835;-58
2024/03/15 09:59:28;;;;;;;7.70;6.80;;;;;;;12.68;60.14;101710.30;106272;1278;25548;-57
2024/03/15 10:01:56;;;;;;;;;;;;;;;12.69;60.06;101708.21;106266;1276;22508;-59
2024/03/15 10:04:25;;;;;;;39.10;15.20;;;;;;;12.69;59.95;101707.16;106307;1279;22534;-57
2024/03/15 10:06:52;;;;;;;31.60;15.40;;;;;;;12.68;59.91;101708.40;106346;1278;22735;-57
2024/03/15 10:09:23;;;;;;;17.50;10.60;;;;;;;12.64;59.81;101711.23;105975;1284;24501;-57
2024/03/15 10:11:52;;;;;;;13.90;9.60;;;;;;;12.62;59.90;101709.01;106282;1263;22543;-58
2024/03/15 10:14:20;;;;;;;12.90;8.50;;;;;;;12.62;60.05;101708.65;106362;1276;23878;-57
2024/03/15 10:16:48;;;;;;;9.60;7.60;;;;;;;12.64;60.07;101711.76;106319;1276;22532;-57
2024/03/15 10:19:15;;;;;;;10.40;7.30;;;;;;;12.63;60.07;101711.75;106371;1278;25504;-57
2024/03/15 10:21:43;;;;;;;8.10;6.70;;;;;;;12.64;60.10;101708.10;106366;1277;23917;-58
2024/03/15 10:27:38;;;;;;;8.20;6.60;;;;;;;12.68;60.15;101708.91;103504;1298;545043;-58
2024/03/15 10:30:13;;;;;;;8.30;6.70;;;;;;;12.68;60.19;101709.77;105840;1283;24249;-58
2024/03/15 10:32:41;;;;;;;7.20;6.30;;;;;;;12.71;60.28;101711.30;105701;1287;24212;-55
2024/03/15 10:35:12;;;;;;;6.90;5.90;;;;;;;12.75;60.15;101711.95;105903;1286;22543;-58
2024/03/15 10:37:42;;;;;;;7.50;6.40;;;;;;;12.76;59.98;101710.88;105923;1283;22492;-56
2024/03/15 10:40:14;;;;;;;7.40;6.40;;;;;;;12.78;59.75;101715.03;105803;1282;245795;-57
2024/03/15 10:42:43;;;;;;;7.60;6.40;;;;;;;12.76;59.81;101712.79;106083;1284;23117;-57
2024/03/15 10:45:11;;;;;;;7.70;5.60;;;;;;;12.76;59.93;101709.30;105995;1281;22549;-57
2024/03/15 10:47:40;;;;;;;6.60;5.40;;;;;;;12.78;59.83;101708.59;105980;1282;22663;-57
2024/03/15 10:50:11;;;;;;;6.30;5.60;;;;;;;12.77;59.69;101707.04;106169;1268;22550;-57
2024/03/15 10:52:49;;;;;;;6.20;5.20;;;;;;;12.76;59.67;101707.21;106200;1281;25365;-57
2024/03/15 10:55:24;;;;;;;9.60;6.70;;;;;;;12.77;59.86;101706.52;105827;1281;22528;-56
2024/03/15 10:57:55;;;;;;;6.60;6.00;;;;;;;12.78;59.76;101703.70;106124;1281;24271;-56
2024/03/15 11:00:26;;;;;;;8.40;6.30;;;;;;;12.78;59.70;101703.71;105238;1285;1003796;-56
2024/03/15 11:02:55;;;;;;;7.50;6.30;;;;;;;12.78;59.86;101700.40;105963;1282;25498;-56
2024/03/15 11:05:24;;;;;;;6.40;5.50;;;;;;;12.79;59.66;101698.64;106228;1281;24201;-57
2024/03/15 11:08:17;;;;;;;6.70;5.00;;;;;;;12.77;59.49;101700.06;106082;1265;22548;-59
2024/03/15 11:10:55;;;;;;;5.70;5.10;;;;;;;12.75;59.51;101703.05;105914;1283;22669;-57
2024/03/15 11:13:24;;;;;;;9.60;5.60;;;;;;;12.60;59.98;101703.81;106064;1281;24360;-57
2024/03/15 11:19:14;;;;;;;5.40;4.90;;;;;;;12.85;59.63;101705.85;103777;1297;545038;-58
2024/03/15 11:21:42;;;;;;;6.30;5.30;;;;;;;12.87;59.50;101705.66;105013;1287;1003546;-58
2024/03/15 11:24:13;;;;;;;5.40;4.90;;;;;;;12.88;59.37;101706.67;105850;1284;22681;-58
2024/03/15 11:26:41;;;;;;;;;;;;;;;12.88;59.29;101710.17;105907;1286;23869;-56
2024/03/15 11:29:14;;;;;;;6.20;5.30;;;;;;;12.88;59.45;101711.90;105929;1281;24240;-57
2024/03/15 11:31:44;;;;;;;7.50;5.80;;;;;;;12.88;59.29;101709.11;105790;1282;226081;-58
2024/03/15 11:34:12;;;;;;;6.20;5.40;;;;;;;12.86;59.19;101716.46;105891;1283;25463;-57